sensor_id;sensor_type;location;lat;lon;timestamp;temperature;humidity
42683;DHT22;28293;50.930;3.464;2024-02-04T00:00:15;11.30;95.70
42683;DHT22;28293;50.930;3.464;2024-02-04T00:02:40;11.40;95.70
42683;DHT22;28293;50.930;3.464;2024-02-04T00:05:06;11.40;95.70
42683;DHT22;28293;50.930;3.464;2024-02-04T00:07:32;11.50;95.60
42683;DHT22;28293;50.930;3.464;2024-02-04T00:09:58;11.50;95.50
42683;DHT22;28293;50.930;3.464;2024-02-04T00:12:23;11.40;95.60
42683;DHT22;28293;50.930;3.464;2024-02-04T00:14:49;11.50;95.70
42683;DHT22;28293;50.930;3.464;2024-02-04T00:17:15;11.50;95.70
42683;DHT22;28293;50.930;3.464;2024-02-04T00:19:41;11.50;95.70
42683;DHT22;28293;50.930;3.464;2024-02-04T00:22:07;11.50;95.90
42683;DHT22;28293;50.930;3.464;2024-02-04T00:24:33;11.40;96.20
42683;DHT22;28293;50.930;3.464;2024-02-04T00:26:58;11.50;96.40
42683;DHT22;28293;50.930;3.464;2024-02-04T00:29:24;11.40;96.50
42683;DHT22;28293;50.930;3.464;2024-02-04T00:31:50;11.40;96.70
42683;DHT22;28293;50.930;3.464;2024-02-04T00:34:15;11.40;96.90
42683;DHT22;28293;50.930;3.464;2024-02-04T00:36:41;11.40;96.90
42683;DHT22;28293;50.930;3.464;2024-02-04T00:39:07;11.40;97.10
42683;DHT22;28293;50.930;3.464;2024-02-04T00:41:33;11.30;97.20
42683;DHT22;28293;50.930;3.464;2024-02-04T00:44:00;11.30;97.20
42683;DHT22;28293;50.930;3.464;2024-02-04T00:46:25;11.30;97.40
42683;DHT22;28293;50.930;3.464;2024-02-04T00:48:51;11.30;97.50
42683;DHT22;28293;50.930;3.464;2024-02-04T00:51:17;11.30;97.50
42683;DHT22;28293;50.930;3.464;2024-02-04T00:53:46;11.30;97.70
42683;DHT22;28293;50.930;3.464;2024-02-04T00:56:12;11.20;97.80
42683;DHT22;28293;50.930;3.464;2024-02-04T00:58:38;11.20;97.80
42683;DHT22;28293;50.930;3.464;2024-02-04T01:01:04;11.20;98.00
42683;DHT22;28293;50.930;3.464;2024-02-04T01:03:31;11.20;98.10
42683;DHT22;28293;50.930;3.464;2024-02-04T01:05:57;11.20;98.10
42683;DHT22;28293;50.930;3.464;2024-02-04T01:08:23;11.20;98.20
42683;DHT22;28293;50.930;3.464;2024-02-04T01:10:48;11.20;98.10
42683;DHT22;28293;50.930;3.464;2024-02-04T01:13:16;11.10;98.30
42683;DHT22;28293;50.930;3.464;2024-02-04T01:15:42;11.10;98.40
42683;DHT22;28293;50.930;3.464;2024-02-04T01:18:08;11.20;98.40
42683;DHT22;28293;50.930;3.464;2024-02-04T01:20:34;11.10;98.40
42683;DHT22;28293;50.930;3.464;2024-02-04T01:23:00;11.10;98.40
42683;DHT22;28293;50.930;3.464;2024-02-04T01:25:25;11.10;98.50
42683;DHT22;28293;50.930;3.464;2024-02-04T01:27:51;11.10;98.60
42683;DHT22;28293;50.930;3.464;2024-02-04T01:30:17;11.10;98.60
42683;DHT22;28293;50.930;3.464;2024-02-04T01:32:42;11.10;98.60
42683;DHT22;28293;50.930;3.464;2024-02-04T01:35:08;11.10;98.70
42683;DHT22;28293;50.930;3.464;2024-02-04T01:37:34;11.10;98.70
42683;DHT22;28293;50.930;3.464;2024-02-04T01:39:59;11.10;98.60
42683;DHT22;28293;50.930;3.464;2024-02-04T01:42:25;11.10;98.70
42683;DHT22;28293;50.930;3.464;2024-02-04T01:44:51;11.10;98.70
42683;DHT22;28293;50.930;3.464;2024-02-04T01:47:16;11.10;98.70
42683;DHT22;28293;50.930;3.464;2024-02-04T01:49:43;11.10;98.70
42683;DHT22;28293;50.930;3.464;2024-02-04T01:52:10;11.10;98.70
42683;DHT22;28293;50.930;3.464;2024-02-04T01:54:37;11.10;98.70
42683;DHT22;28293;50.930;3.464;2024-02-04T01:57:05;11.10;98.60
42683;DHT22;28293;50.930;3.464;2024-02-04T01:59:31;11.00;98.60
42683;DHT22;28293;50.930;3.464;2024-02-04T02:02:00;11.10;98.70
42683;DHT22;28293;50.930;3.464;2024-02-04T02:04:27;11.10;98.70
42683;DHT22;28293;50.930;3.464;2024-02-04T02:06:54;11.10;98.70
42683;DHT22;28293;50.930;3.464;2024-02-04T02:09:19;11.10;98.70
42683;DHT22;28293;50.930;3.464;2024-02-04T02:11:57;11.10;98.80
42683;DHT22;28293;50.930;3.464;2024-02-04T02:14:27;11.10;98.70
42683;DHT22;28293;50.930;3.464;2024-02-04T02:16:57;11.10;98.70
42683;DHT22;28293;50.930;3.464;2024-02-04T02:22:06;11.10;98.80
42683;DHT22;28293;50.930;3.464;2024-02-04T02:24:35;11.10;98.80
42683;DHT22;28293;50.930;3.464;2024-02-04T02:27:01;11.10;98.80
42683;DHT22;28293;50.930;3.464;2024-02-04T02:29:27;11.10;98.90
42683;DHT22;28293;50.930;3.464;2024-02-04T02:31:52;11.10;98.90
42683;DHT22;28293;50.930;3.464;2024-02-04T02:34:18;11.10;98.90
42683;DHT22;28293;50.930;3.464;2024-02-04T02:36:45;11.10;98.90
42683;DHT22;28293;50.930;3.464;2024-02-04T02:39:18;11.10;98.80
42683;DHT22;28293;50.930;3.464;2024-02-04T02:41:49;11.10;98.90
42683;DHT22;28293;50.930;3.464;2024-02-04T02:44:17;11.00;98.90
42683;DHT22;28293;50.930;3.464;2024-02-04T02:46:43;11.10;99.00
42683;DHT22;28293;50.930;3.464;2024-02-04T02:49:09;11.10;99.00
42683;DHT22;28293;50.930;3.464;2024-02-04T02:51:35;11.00;99.00
42683;DHT22;28293;50.930;3.464;2024-02-04T02:54:01;11.10;99.00
42683;DHT22;28293;50.930;3.464;2024-02-04T02:56:26;11.00;98.90
42683;DHT22;28293;50.930;3.464;2024-02-04T02:58:52;11.10;99.00
42683;DHT22;28293;50.930;3.464;2024-02-04T03:01:17;11.10;99.00
42683;DHT22;28293;50.930;3.464;2024-02-04T03:03:43;11.10;98.90
42683;DHT22;28293;50.930;3.464;2024-02-04T03:06:09;11.10;99.00
42683;DHT22;28293;50.930;3.464;2024-02-04T03:08:35;11.00;99.00
42683;DHT22;28293;50.930;3.464;2024-02-04T03:11:00;11.00;99.00
42683;DHT22;28293;50.930;3.464;2024-02-04T03:13:26;11.00;99.00
42683;DHT22;28293;50.930;3.464;2024-02-04T03:15:52;11.00;99.00
42683;DHT22;28293;50.930;3.464;2024-02-04T03:18:17;11.00;99.10
42683;DHT22;28293;50.930;3.464;2024-02-04T03:20:43;11.00;99.10
42683;DHT22;28293;50.930;3.464;2024-02-04T03:23:08;11.00;99.10
42683;DHT22;28293;50.930;3.464;2024-02-04T03:25:34;11.00;99.10
42683;DHT22;28293;50.930;3.464;2024-02-04T03:28:00;11.00;99.20
42683;DHT22;28293;50.930;3.464;2024-02-04T03:30:25;11.00;99.20
42683;DHT22;28293;50.930;3.464;2024-02-04T03:32:51;10.90;99.10
42683;DHT22;28293;50.930;3.464;2024-02-04T03:35:16;11.00;99.20
42683;DHT22;28293;50.930;3.464;2024-02-04T03:37:42;11.00;99.20
42683;DHT22;28293;50.930;3.464;2024-02-04T03:40:08;11.00;99.20
42683;DHT22;28293;50.930;3.464;2024-02-04T03:42:34;11.00;99.10
42683;DHT22;28293;50.930;3.464;2024-02-04T03:44:59;11.00;99.20
42683;DHT22;28293;50.930;3.464;2024-02-04T03:47:27;11.00;99.20
42683;DHT22;28293;50.930;3.464;2024-02-04T03:49:53;11.00;99.30
42683;DHT22;28293;50.930;3.464;2024-02-04T03:52:19;11.00;99.20
42683;DHT22;28293;50.930;3.464;2024-02-04T03:54:44;11.00;99.30
42683;DHT22;28293;50.930;3.464;2024-02-04T03:57:10;11.00;99.20
42683;DHT22;28293;50.930;3.464;2024-02-04T03:59:35;11.00;99.30
42683;DHT22;28293;50.930;3.464;2024-02-04T04:02:01;11.00;99.30
42683;DHT22;28293;50.930;3.464;2024-02-04T04:04:27;11.00;99.40
42683;DHT22;28293;50.930;3.464;2024-02-04T04:06:53;11.10;99.40
42683;DHT22;28293;50.930;3.464;2024-02-04T04:09:18;11.00;99.30
42683;DHT22;28293;50.930;3.464;2024-02-04T04:11:44;11.00;99.40
42683;DHT22;28293;50.930;3.464;2024-02-04T04:14:10;11.00;99.40
42683;DHT22;28293;50.930;3.464;2024-02-04T04:16:35;11.00;99.40
42683;DHT22;28293;50.930;3.464;2024-02-04T04:19:01;11.00;99.40
42683;DHT22;28293;50.930;3.464;2024-02-04T04:21:26;11.00;99.40
42683;DHT22;28293;50.930;3.464;2024-02-04T04:23:52;11.00;99.50
42683;DHT22;28293;50.930;3.464;2024-02-04T04:26:18;11.00;99.40
42683;DHT22;28293;50.930;3.464;2024-02-04T04:28:43;11.00;99.40
42683;DHT22;28293;50.930;3.464;2024-02-04T04:31:09;11.00;99.30
42683;DHT22;28293;50.930;3.464;2024-02-04T04:33:36;11.10;99.30
42683;DHT22;28293;50.930;3.464;2024-02-04T04:36:02;11.10;99.20
42683;DHT22;28293;50.930;3.464;2024-02-04T04:38:28;11.10;99.20
42683;DHT22;28293;50.930;3.464;2024-02-04T04:40:53;11.10;99.10
42683;DHT22;28293;50.930;3.464;2024-02-04T04:43:19;11.10;99.10
42683;DHT22;28293;50.930;3.464;2024-02-04T04:45:45;11.10;99.00
42683;DHT22;28293;50.930;3.464;2024-02-04T04:48:10;11.10;99.00
42683;DHT22;28293;50.930;3.464;2024-02-04T04:50:36;11.00;98.90
42683;DHT22;28293;50.930;3.464;2024-02-04T04:53:02;11.00;98.90
42683;DHT22;28293;50.930;3.464;2024-02-04T04:55:27;11.10;98.90
42683;DHT22;28293;50.930;3.464;2024-02-04T04:57:53;11.10;98.80
42683;DHT22;28293;50.930;3.464;2024-02-04T05:00:19;11.10;98.80
42683;DHT22;28293;50.930;3.464;2024-02-04T05:02:45;11.00;98.80
42683;DHT22;28293;50.930;3.464;2024-02-04T05:05:11;11.00;98.70
42683;DHT22;28293;50.930;3.464;2024-02-04T05:07:37;11.10;98.70
42683;DHT22;28293;50.930;3.464;2024-02-04T05:10:03;11.10;98.70
42683;DHT22;28293;50.930;3.464;2024-02-04T05:12:29;11.10;98.60
42683;DHT22;28293;50.930;3.464;2024-02-04T05:14:55;11.00;98.60
42683;DHT22;28293;50.930;3.464;2024-02-04T05:17:21;11.10;98.60
42683;DHT22;28293;50.930;3.464;2024-02-04T05:19:47;11.10;98.50
42683;DHT22;28293;50.930;3.464;2024-02-04T05:22:12;11.10;98.40
42683;DHT22;28293;50.930;3.464;2024-02-04T05:24:38;11.10;98.40
42683;DHT22;28293;50.930;3.464;2024-02-04T05:27:04;11.10;98.40
42683;DHT22;28293;50.930;3.464;2024-02-04T05:29:31;11.10;98.40
42683;DHT22;28293;50.930;3.464;2024-02-04T05:31:56;11.10;98.40
42683;DHT22;28293;50.930;3.464;2024-02-04T05:34:22;11.10;98.40
42683;DHT22;28293;50.930;3.464;2024-02-04T05:36:48;11.10;98.40
42683;DHT22;28293;50.930;3.464;2024-02-04T05:39:14;11.10;98.40
42683;DHT22;28293;50.930;3.464;2024-02-04T05:41:41;11.10;98.30
42683;DHT22;28293;50.930;3.464;2024-02-04T05:44:07;11.10;98.30
42683;DHT22;28293;50.930;3.464;2024-02-04T05:46:36;11.10;98.20
42683;DHT22;28293;50.930;3.464;2024-02-04T05:49:02;11.10;98.20
42683;DHT22;28293;50.930;3.464;2024-02-04T05:51:28;11.10;98.20
42683;DHT22;28293;50.930;3.464;2024-02-04T05:53:54;11.20;98.10
42683;DHT22;28293;50.930;3.464;2024-02-04T05:56:21;11.10;98.10
42683;DHT22;28293;50.930;3.464;2024-02-04T05:58:47;11.10;98.10
42683;DHT22;28293;50.930;3.464;2024-02-04T06:01:13;11.10;98.10
42683;DHT22;28293;50.930;3.464;2024-02-04T06:03:38;11.10;98.10
42683;DHT22;28293;50.930;3.464;2024-02-04T06:06:04;11.10;98.10
42683;DHT22;28293;50.930;3.464;2024-02-04T06:08:30;11.10;98.10
42683;DHT22;28293;50.930;3.464;2024-02-04T06:10:55;11.10;98.00
42683;DHT22;28293;50.930;3.464;2024-02-04T06:13:21;11.10;97.90
42683;DHT22;28293;50.930;3.464;2024-02-04T06:15:46;11.10;97.80
42683;DHT22;28293;50.930;3.464;2024-02-04T06:18:12;11.10;97.80
42683;DHT22;28293;50.930;3.464;2024-02-04T06:20:38;11.10;97.70
42683;DHT22;28293;50.930;3.464;2024-02-04T06:23:03;11.20;97.60
42683;DHT22;28293;50.930;3.464;2024-02-04T06:25:29;11.10;97.50
42683;DHT22;28293;50.930;3.464;2024-02-04T06:27:55;11.20;97.40
42683;DHT22;28293;50.930;3.464;2024-02-04T06:30:20;11.10;97.30
42683;DHT22;28293;50.930;3.464;2024-02-04T06:32:48;11.20;97.30
42683;DHT22;28293;50.930;3.464;2024-02-04T06:35:15;11.20;97.10
42683;DHT22;28293;50.930;3.464;2024-02-04T06:37:41;11.20;97.00
42683;DHT22;28293;50.930;3.464;2024-02-04T06:40:09;11.20;96.90
42683;DHT22;28293;50.930;3.464;2024-02-04T06:42:35;11.20;97.00
42683;DHT22;28293;50.930;3.464;2024-02-04T06:45:01;11.20;97.00
42683;DHT22;28293;50.930;3.464;2024-02-04T06:47:26;11.20;97.00
42683;DHT22;28293;50.930;3.464;2024-02-04T06:49:52;11.20;97.00
42683;DHT22;28293;50.930;3.464;2024-02-04T06:52:17;11.20;96.90
42683;DHT22;28293;50.930;3.464;2024-02-04T06:54:44;11.30;96.80
42683;DHT22;28293;50.930;3.464;2024-02-04T06:57:09;11.20;96.70
42683;DHT22;28293;50.930;3.464;2024-02-04T06:59:35;11.20;96.70
42683;DHT22;28293;50.930;3.464;2024-02-04T07:02:01;11.20;96.70
42683;DHT22;28293;50.930;3.464;2024-02-04T07:04:26;11.20;96.60
42683;DHT22;28293;50.930;3.464;2024-02-04T07:06:52;11.30;96.50
42683;DHT22;28293;50.930;3.464;2024-02-04T07:09:18;11.30;96.40
42683;DHT22;28293;50.930;3.464;2024-02-04T07:11:43;11.20;96.30
42683;DHT22;28293;50.930;3.464;2024-02-04T07:14:09;11.20;96.30
42683;DHT22;28293;50.930;3.464;2024-02-04T07:16:34;11.20;96.30
42683;DHT22;28293;50.930;3.464;2024-02-04T07:19:00;11.30;96.10
42683;DHT22;28293;50.930;3.464;2024-02-04T07:21:26;11.20;96.10
42683;DHT22;28293;50.930;3.464;2024-02-04T07:23:51;11.20;96.00
42683;DHT22;28293;50.930;3.464;2024-02-04T07:26:17;11.30;95.90
42683;DHT22;28293;50.930;3.464;2024-02-04T07:28:42;11.30;95.90
42683;DHT22;28293;50.930;3.464;2024-02-04T07:31:08;11.30;95.90
42683;DHT22;28293;50.930;3.464;2024-02-04T07:33:34;11.30;95.80
42683;DHT22;28293;50.930;3.464;2024-02-04T07:35:59;11.30;95.80
42683;DHT22;28293;50.930;3.464;2024-02-04T07:38:25;11.30;95.80
42683;DHT22;28293;50.930;3.464;2024-02-04T07:40:50;11.30;95.70
42683;DHT22;28293;50.930;3.464;2024-02-04T07:43:16;11.30;95.70
42683;DHT22;28293;50.930;3.464;2024-02-04T07:45:42;11.30;95.80
42683;DHT22;28293;50.930;3.464;2024-02-04T07:48:07;11.30;95.80
42683;DHT22;28293;50.930;3.464;2024-02-04T07:50:34;11.30;95.90
42683;DHT22;28293;50.930;3.464;2024-02-04T07:53:00;11.30;95.90
42683;DHT22;28293;50.930;3.464;2024-02-04T07:55:26;11.30;95.80
42683;DHT22;28293;50.930;3.464;2024-02-04T07:57:51;11.30;95.80
42683;DHT22;28293;50.930;3.464;2024-02-04T08:00:17;11.40;95.90
42683;DHT22;28293;50.930;3.464;2024-02-04T08:02:46;11.40;95.80
42683;DHT22;28293;50.930;3.464;2024-02-04T08:05:13;11.40;95.80
42683;DHT22;28293;50.930;3.464;2024-02-04T08:07:38;11.40;95.80
42683;DHT22;28293;50.930;3.464;2024-02-04T08:10:05;11.40;95.80
42683;DHT22;28293;50.930;3.464;2024-02-04T08:12:30;11.40;95.80
42683;DHT22;28293;50.930;3.464;2024-02-04T08:14:56;11.40;95.90
42683;DHT22;28293;50.930;3.464;2024-02-04T08:17:21;11.40;95.90
42683;DHT22;28293;50.930;3.464;2024-02-04T08:19:47;11.40;95.80
42683;DHT22;28293;50.930;3.464;2024-02-04T08:22:13;11.50;95.80
42683;DHT22;28293;50.930;3.464;2024-02-04T08:24:38;11.40;95.80
42683;DHT22;28293;50.930;3.464;2024-02-04T08:27:04;11.50;95.90
42683;DHT22;28293;50.930;3.464;2024-02-04T08:29:30;11.50;95.80
42683;DHT22;28293;50.930;3.464;2024-02-04T08:31:56;11.50;95.70
42683;DHT22;28293;50.930;3.464;2024-02-04T08:34:21;11.50;95.70
42683;DHT22;28293;50.930;3.464;2024-02-04T08:36:49;11.50;95.60
42683;DHT22;28293;50.930;3.464;2024-02-04T08:39:15;11.50;95.60
42683;DHT22;28293;50.930;3.464;2024-02-04T08:41:41;11.60;95.60
42683;DHT22;28293;50.930;3.464;2024-02-04T08:44:07;11.60;95.50
42683;DHT22;28293;50.930;3.464;2024-02-04T08:46:33;11.60;95.30
42683;DHT22;28293;50.930;3.464;2024-02-04T08:48:58;11.60;95.30
42683;DHT22;28293;50.930;3.464;2024-02-04T08:51:24;11.60;95.20
42683;DHT22;28293;50.930;3.464;2024-02-04T08:53:50;11.60;95.20
42683;DHT22;28293;50.930;3.464;2024-02-04T08:56:15;11.60;95.10
42683;DHT22;28293;50.930;3.464;2024-02-04T08:58:41;11.60;95.10
42683;DHT22;28293;50.930;3.464;2024-02-04T09:01:06;11.60;95.10
42683;DHT22;28293;50.930;3.464;2024-02-04T09:03:32;11.60;95.00
42683;DHT22;28293;50.930;3.464;2024-02-04T09:05:59;11.60;95.00
42683;DHT22;28293;50.930;3.464;2024-02-04T09:08:24;11.60;95.00
42683;DHT22;28293;50.930;3.464;2024-02-04T09:10:50;11.70;94.70
42683;DHT22;28293;50.930;3.464;2024-02-04T09:13:15;11.70;94.60
42683;DHT22;28293;50.930;3.464;2024-02-04T09:15:41;11.70;94.60
42683;DHT22;28293;50.930;3.464;2024-02-04T09:18:07;11.70;94.60
42683;DHT22;28293;50.930;3.464;2024-02-04T09:20:33;11.80;94.50
42683;DHT22;28293;50.930;3.464;2024-02-04T09:22:58;11.80;94.50
42683;DHT22;28293;50.930;3.464;2024-02-04T09:25:25;11.90;94.30
42683;DHT22;28293;50.930;3.464;2024-02-04T09:27:50;11.90;94.30
42683;DHT22;28293;50.930;3.464;2024-02-04T09:30:16;12.00;94.00
42683;DHT22;28293;50.930;3.464;2024-02-04T09:32:42;12.10;94.00
42683;DHT22;28293;50.930;3.464;2024-02-04T09:35:08;12.10;93.80
42683;DHT22;28293;50.930;3.464;2024-02-04T09:37:35;12.10;93.80
42683;DHT22;28293;50.930;3.464;2024-02-04T09:40:00;12.20;93.80
42683;DHT22;28293;50.930;3.464;2024-02-04T09:42:26;12.10;93.50
42683;DHT22;28293;50.930;3.464;2024-02-04T09:44:53;12.20;93.60
42683;DHT22;28293;50.930;3.464;2024-02-04T09:47:20;12.20;93.50
42683;DHT22;28293;50.930;3.464;2024-02-04T09:49:46;12.10;93.50
42683;DHT22;28293;50.930;3.464;2024-02-04T09:52:13;12.10;93.60
42683;DHT22;28293;50.930;3.464;2024-02-04T09:54:57;12.20;93.60
42683;DHT22;28293;50.930;3.464;2024-02-04T09:57:24;12.20;93.40
42683;DHT22;28293;50.930;3.464;2024-02-04T09:59:50;12.20;93.40
42683;DHT22;28293;50.930;3.464;2024-02-04T10:02:15;12.20;93.40
42683;DHT22;28293;50.930;3.464;2024-02-04T10:04:41;12.30;93.30
42683;DHT22;28293;50.930;3.464;2024-02-04T10:07:07;12.30;93.30
42683;DHT22;28293;50.930;3.464;2024-02-04T10:09:32;12.20;93.30
42683;DHT22;28293;50.930;3.464;2024-02-04T10:11:59;12.10;93.50
42683;DHT22;28293;50.930;3.464;2024-02-04T10:14:24;12.20;93.50
42683;DHT22;28293;50.930;3.464;2024-02-04T10:16:50;12.30;93.40
42683;DHT22;28293;50.930;3.464;2024-02-04T10:19:16;12.20;93.20
42683;DHT22;28293;50.930;3.464;2024-02-04T10:21:42;12.30;93.40
42683;DHT22;28293;50.930;3.464;2024-02-04T10:24:08;12.30;93.20
42683;DHT22;28293;50.930;3.464;2024-02-04T10:26:33;12.10;93.50
42683;DHT22;28293;50.930;3.464;2024-02-04T10:29:02;12.20;93.60
42683;DHT22;28293;50.930;3.464;2024-02-04T10:31:28;12.20;93.70
42683;DHT22;28293;50.930;3.464;2024-02-04T10:33:54;12.20;93.70
42683;DHT22;28293;50.930;3.464;2024-02-04T10:36:20;12.20;93.60
42683;DHT22;28293;50.930;3.464;2024-02-04T10:38:46;12.20;93.50
42683;DHT22;28293;50.930;3.464;2024-02-04T10:41:16;12.20;93.60
42683;DHT22;28293;50.930;3.464;2024-02-04T10:43:43;12.20;93.70
42683;DHT22;28293;50.930;3.464;2024-02-04T10:46:13;12.20;93.50
42683;DHT22;28293;50.930;3.464;2024-02-04T10:48:42;12.20;93.50
42683;DHT22;28293;50.930;3.464;2024-02-04T10:51:13;12.20;93.40
42683;DHT22;28293;50.930;3.464;2024-02-04T10:53:44;12.20;93.40
42683;DHT22;28293;50.930;3.464;2024-02-04T10:56:43;12.10;93.70
42683;DHT22;28293;50.930;3.464;2024-02-04T10:59:08;12.10;93.90
42683;DHT22;28293;50.930;3.464;2024-02-04T11:01:35;12.10;94.20
42683;DHT22;28293;50.930;3.464;2024-02-04T11:04:02;12.10;94.40
42683;DHT22;28293;50.930;3.464;2024-02-04T11:06:29;12.10;94.50
42683;DHT22;28293;50.930;3.464;2024-02-04T11:08:56;12.10;94.70
42683;DHT22;28293;50.930;3.464;2024-02-04T11:11:24;12.10;94.80
42683;DHT22;28293;50.930;3.464;2024-02-04T11:13:56;12.00;95.00
42683;DHT22;28293;50.930;3.464;2024-02-04T11:27:47;11.80;95.60
42683;DHT22;28293;50.930;3.464;2024-02-04T11:30:14;11.90;95.70
42683;DHT22;28293;50.930;3.464;2024-02-04T11:32:40;11.90;95.70
42683;DHT22;28293;50.930;3.464;2024-02-04T11:35:07;11.90;95.60
42683;DHT22;28293;50.930;3.464;2024-02-04T11:37:34;12.00;95.60
42683;DHT22;28293;50.930;3.464;2024-02-04T11:40:00;12.10;95.50
42683;DHT22;28293;50.930;3.464;2024-02-04T11:42:31;12.10;95.50
42683;DHT22;28293;50.930;3.464;2024-02-04T11:45:11;12.10;95.30
42683;DHT22;28293;50.930;3.464;2024-02-04T11:47:38;12.10;95.00
42683;DHT22;28293;50.930;3.464;2024-02-04T11:50:04;12.10;95.30
42683;DHT22;28293;50.930;3.464;2024-02-04T11:52:30;12.00;95.30
42683;DHT22;28293;50.930;3.464;2024-02-04T11:54:57;12.00;95.60
42683;DHT22;28293;50.930;3.464;2024-02-04T11:57:23;12.00;95.70
42683;DHT22;28293;50.930;3.464;2024-02-04T11:59:50;12.10;95.70
42683;DHT22;28293;50.930;3.464;2024-02-04T12:02:17;12.10;95.60
42683;DHT22;28293;50.930;3.464;2024-02-04T12:04:50;12.00;95.70
42683;DHT22;28293;50.930;3.464;2024-02-04T12:07:21;12.00;95.90
42683;DHT22;28293;50.930;3.464;2024-02-04T12:09:48;12.10;96.10
42683;DHT22;28293;50.930;3.464;2024-02-04T12:12:14;12.10;96.10
42683;DHT22;28293;50.930;3.464;2024-02-04T12:14:41;12.10;96.10
42683;DHT22;28293;50.930;3.464;2024-02-04T12:17:09;12.10;96.30
42683;DHT22;28293;50.930;3.464;2024-02-04T12:19:36;12.10;96.30
42683;DHT22;28293;50.930;3.464;2024-02-04T12:22:01;12.10;96.30
42683;DHT22;28293;50.930;3.464;2024-02-04T12:24:33;12.10;96.40
42683;DHT22;28293;50.930;3.464;2024-02-04T12:26:59;12.10;96.60
42683;DHT22;28293;50.930;3.464;2024-02-04T12:29:25;12.10;96.90
42683;DHT22;28293;50.930;3.464;2024-02-04T12:31:58;12.10;96.80
42683;DHT22;28293;50.930;3.464;2024-02-04T12:34:25;12.10;96.70
42683;DHT22;28293;50.930;3.464;2024-02-04T12:36:58;12.10;96.80
42683;DHT22;28293;50.930;3.464;2024-02-04T12:39:24;12.10;96.90
42683;DHT22;28293;50.930;3.464;2024-02-04T12:41:53;12.00;96.90
42683;DHT22;28293;50.930;3.464;2024-02-04T12:44:19;12.10;96.90
42683;DHT22;28293;50.930;3.464;2024-02-04T12:46:45;12.10;96.90
42683;DHT22;28293;50.930;3.464;2024-02-04T12:49:24;12.10;96.90
42683;DHT22;28293;50.930;3.464;2024-02-04T12:51:51;12.10;96.80
42683;DHT22;28293;50.930;3.464;2024-02-04T12:54:21;12.10;96.90
42683;DHT22;28293;50.930;3.464;2024-02-04T12:56:50;12.20;96.60
42683;DHT22;28293;50.930;3.464;2024-02-04T12:59:31;12.20;96.50
42683;DHT22;28293;50.930;3.464;2024-02-04T13:01:59;12.10;96.50
42683;DHT22;28293;50.930;3.464;2024-02-04T13:04:26;12.20;96.60
42683;DHT22;28293;50.930;3.464;2024-02-04T13:06:52;12.30;96.60
42683;DHT22;28293;50.930;3.464;2024-02-04T13:09:18;12.30;96.20
42683;DHT22;28293;50.930;3.464;2024-02-04T13:11:45;12.30;96.00
42683;DHT22;28293;50.930;3.464;2024-02-04T13:14:11;12.30;96.10
42683;DHT22;28293;50.930;3.464;2024-02-04T13:16:37;12.20;96.10
42683;DHT22;28293;50.930;3.464;2024-02-04T13:19:04;12.30;95.90
42683;DHT22;28293;50.930;3.464;2024-02-04T13:21:30;12.30;95.80
42683;DHT22;28293;50.930;3.464;2024-02-04T13:23:56;12.40;95.60
42683;DHT22;28293;50.930;3.464;2024-02-04T13:26:22;12.40;95.40
42683;DHT22;28293;50.930;3.464;2024-02-04T13:28:48;12.30;95.10
42683;DHT22;28293;50.930;3.464;2024-02-04T13:31:14;12.30;95.00
42683;DHT22;28293;50.930;3.464;2024-02-04T13:33:40;12.40;95.00
42683;DHT22;28293;50.930;3.464;2024-02-04T13:36:09;12.40;94.60
42683;DHT22;28293;50.930;3.464;2024-02-04T13:38:36;12.50;94.60
42683;DHT22;28293;50.930;3.464;2024-02-04T13:41:02;12.50;94.50
42683;DHT22;28293;50.930;3.464;2024-02-04T13:43:31;12.60;94.10
42683;DHT22;28293;50.930;3.464;2024-02-04T13:45:59;12.60;94.00
42683;DHT22;28293;50.930;3.464;2024-02-04T13:48:25;12.60;93.90
42683;DHT22;28293;50.930;3.464;2024-02-04T13:50:51;12.60;93.90
42683;DHT22;28293;50.930;3.464;2024-02-04T13:53:20;12.60;93.70
42683;DHT22;28293;50.930;3.464;2024-02-04T13:55:45;12.70;93.50
42683;DHT22;28293;50.930;3.464;2024-02-04T13:58:11;12.60;93.30
42683;DHT22;28293;50.930;3.464;2024-02-04T14:00:37;12.60;93.00
42683;DHT22;28293;50.930;3.464;2024-02-04T14:03:03;12.70;93.20
42683;DHT22;28293;50.930;3.464;2024-02-04T14:05:29;12.80;92.70
42683;DHT22;28293;50.930;3.464;2024-02-04T14:07:55;12.90;92.50
42683;DHT22;28293;50.930;3.464;2024-02-04T14:10:21;12.90;92.00
42683;DHT22;28293;50.930;3.464;2024-02-04T14:12:47;12.80;92.30
42683;DHT22;28293;50.930;3.464;2024-02-04T14:15:13;12.90;92.30
42683;DHT22;28293;50.930;3.464;2024-02-04T14:17:39;12.90;92.00
42683;DHT22;28293;50.930;3.464;2024-02-04T14:20:06;12.80;92.10
42683;DHT22;28293;50.930;3.464;2024-02-04T14:22:32;12.90;91.80
42683;DHT22;28293;50.930;3.464;2024-02-04T14:24:58;12.90;91.80
42683;DHT22;28293;50.930;3.464;2024-02-04T14:27:25;12.90;91.60
42683;DHT22;28293;50.930;3.464;2024-02-04T14:29:51;13.00;91.40
42683;DHT22;28293;50.930;3.464;2024-02-04T14:32:17;12.90;91.10
42683;DHT22;28293;50.930;3.464;2024-02-04T14:34:44;13.00;90.90
42683;DHT22;28293;50.930;3.464;2024-02-04T14:37:10;13.00;90.90
42683;DHT22;28293;50.930;3.464;2024-02-04T14:39:36;12.90;91.00
42683;DHT22;28293;50.930;3.464;2024-02-04T14:42:02;12.90;91.00
42683;DHT22;28293;50.930;3.464;2024-02-04T14:44:29;12.80;91.00
42683;DHT22;28293;50.930;3.464;2024-02-04T14:46:54;12.80;90.80
42683;DHT22;28293;50.930;3.464;2024-02-04T14:49:20;12.80;90.70
42683;DHT22;28293;50.930;3.464;2024-02-04T14:51:46;12.70;91.00
42683;DHT22;28293;50.930;3.464;2024-02-04T14:54:12;12.80;91.30
42683;DHT22;28293;50.930;3.464;2024-02-04T14:56:39;12.80;91.40
42683;DHT22;28293;50.930;3.464;2024-02-04T14:59:08;12.80;91.50
42683;DHT22;28293;50.930;3.464;2024-02-04T15:01:34;12.70;91.50
42683;DHT22;28293;50.930;3.464;2024-02-04T15:04:00;12.70;91.80
42683;DHT22;28293;50.930;3.464;2024-02-04T15:06:26;12.60;91.60
42683;DHT22;28293;50.930;3.464;2024-02-04T15:08:55;12.60;91.60
42683;DHT22;28293;50.930;3.464;2024-02-04T15:11:21;12.60;91.40
42683;DHT22;28293;50.930;3.464;2024-02-04T15:13:48;12.60;91.60
42683;DHT22;28293;50.930;3.464;2024-02-04T15:16:14;12.60;91.80
42683;DHT22;28293;50.930;3.464;2024-02-04T15:18:40;12.50;91.90
42683;DHT22;28293;50.930;3.464;2024-02-04T15:21:06;12.50;91.90
42683;DHT22;28293;50.930;3.464;2024-02-04T15:23:32;12.50;91.90
42683;DHT22;28293;50.930;3.464;2024-02-04T15:25:59;12.50;92.10
42683;DHT22;28293;50.930;3.464;2024-02-04T15:28:25;12.50;92.10
42683;DHT22;28293;50.930;3.464;2024-02-04T15:30:51;12.50;92.30
42683;DHT22;28293;50.930;3.464;2024-02-04T15:33:18;12.50;92.20
42683;DHT22;28293;50.930;3.464;2024-02-04T15:35:44;12.40;92.30
42683;DHT22;28293;50.930;3.464;2024-02-04T15:38:10;12.40;92.40